Latest Coastal Weather Observations for Alva Beach

IDQ60701

Issued at 12:45 am EST Thursday 21 August 2014 (issued every 10 minutes, with the page automatically refreshed every 10 minutes)

About coastal observations | Map of coastal stations | Coastal observations for QLD | Marine services | Other Formats
Station Details ID: 033295 Name: ALVA BEACH Lat: -19.46 Lon: 147.48 Height: 7.5 m
Data from the previous 72 hours. | See also: Recent months at Alva Beach
Date/Time
EST
Temp

°C
Wind Pressure Rain
since 9am
mm
Weather Cloud Vis
km
Sea
Height
m
Swell
Dir
 
Speed
knots
Gust
knots
hPa Trend Height
m
Period
s
Dir
21/12:30am 19.3 E 10 13 1017.8 - 0.0 - - - - - - -
21/12:00am 19.4 ENE 12 15 1018.0 - 0.0 - - - - - - -
 
Date/Time
EST
Temp

°C
Wind Pressure Rain
since 9am
mm
Weather Cloud Vis
km
Sea
Height
m
Swell
Dir
 
Speed
knots
Gust
knots
hPa Trend Height
m
Period
s
Dir
20/11:30pm 19.5 ENE 12 17 1018.3 - 0.0 - - - - - - -
20/11:00pm 19.5 ENE 12 16 1018.3 - 0.0 - - - - - - -
20/10:30pm 19.6 E 12 15 1018.4 - 0.0 - - - - - - -
20/10:00pm 19.6 ENE 13 17 1018.4 - 0.0 - - - - - - -
20/09:30pm 19.7 ENE 15 20 1018.3 - 0.0 - - - - - - -
20/09:00pm 19.6 E 14 19 1018.4 - 0.0 - - - - - - -
20/08:30pm 19.7 E 14 19 1018.4 - 0.0 - - - - - - -
20/08:00pm 19.6 ENE 15 19 1018.3 - 0.0 - - - - - - -
20/07:30pm 19.8 ENE 15 18 1018.2 - 0.0 - - - - - - -
20/07:00pm 19.8 ENE 15 17 1017.9 - 0.0 - - - - - - -
20/06:30pm 19.8 ENE 14 16 1017.5 - 0.0 - - - - - - -
20/06:00pm 19.7 ENE 14 16 1017.1 - 0.0 - - - - - - -
20/05:30pm 20.0 ENE 14 17 1016.8 - 0.0 - - - - - - -
20/05:00pm 20.4 ENE 13 16 1016.5 - 0.0 - - - - - - -
20/04:30pm 21.0 ENE 11 15 1016.2 - 0.0 - - - - - - -
20/04:00pm 21.1 E 11 14 1015.9 - 0.0 - - - - - - -
20/03:30pm 21.3 E 10 13 1015.8 - 0.0 - - - - - - -
20/03:00pm 21.2 E 9 13 1015.9 - 0.0 - - - - - - -
20/02:30pm 21.4 E 9 13 1016.1 - 0.0 - - - - - - -
20/02:00pm 21.8 E 9 12 1016.4 - 0.0 - - - - - - -
20/01:30pm 21.8 E 8 11 1016.6 - 0.0 - - - - - - -
20/01:00pm 22.2 E 8 11 1016.9 - 0.0 - - - - - - -
20/12:30pm 21.5 E 7 10 1017.3 - 0.0 - - - - - - -
20/12:00pm 21.3 E 8 11 1017.5 - 0.0 - - - - - - -
20/11:30am 21.5 E 7 11 1018.1 - 0.0 - - - - - - -
20/11:00am 21.7 E 5 9 1018.6 - 0.0 - - - - - - -
20/10:30am 20.7 ESE 7 12 1018.7 - 0.0 - - - - - - -
20/10:00am 20.2 ESE 7 10 1018.9 - 0.0 - - - - - - -
20/09:30am 19.8 ESE 6 10 1018.9 - 0.0 - - - - - - -
20/09:00am 19.3 SSE 4 6 1018.7 - 0.0 - - - - - - -
20/08:30am 17.1 S 5 7 1018.8 - 0.0 - - - - - - -
20/08:00am 14.9 S 5 7 1018.5 - 0.0 - - - - - - -
20/07:30am 12.7 SSW 5 6 1018.2 - 0.0 - - - - - - -
20/07:00am 11.2 SW 4 6 1018.0 - 0.0 - - - - - - -
20/06:30am 10.8 SSW 5 6 1017.6 - 0.0 - - - - - - -
20/06:00am 10.8 SSW 5 7 1017.3 - 0.0 - - - - - - -
20/05:30am 11.0 SSW 5 7 1017.0 - 0.0 - - - - - - -
20/05:00am 10.9 SSW 6 8 1016.9 - 0.0 - - - - - - -
20/04:30am 11.0 SSW 6 7 1016.7 - 0.0 - - - - - - -
20/04:00am 11.1 SSW 5 7 1016.6 - 0.0 - - - - - - -
20/03:30am 11.4 SW 5 6 1016.8 - 0.0 - - - - - - -
20/03:00am 11.6 SSW 5 6 1016.9 - 0.0 - - - - - - -
20/02:30am 11.6 SSW 5 6 1017.0 - 0.0 - - - - - - -
20/02:00am 11.5 SW 4 5 1017.0 - 0.0 - - - - - - -
20/01:30am 13.2 E 3 5 1017.0 - 0.0 - - - - - - -
20/01:00am 14.2 E 3 6 1017.1 - 0.0 - - - - - - -
20/12:30am 13.6 E 3 5 1017.5 - 0.0 - - - - - - -
20/12:00am 14.3 SSE 4 5 1017.6 - 0.0 - - - - - - -
 
Date/Time
EST
Temp

°C
Wind Pressure Rain
since 9am
mm
Weather Cloud Vis
km
Sea
Height
m
Swell
Dir
 
Speed
knots
Gust
knots
hPa Trend Height
m
Period
s
Dir
19/11:30pm 14.3 S 4 5 1017.9 - 0.0 - - - - - - -
19/11:00pm 14.4 S 2 4 1018.0 - 0.0 - - - - - - -
19/10:30pm 14.8 E 2 4 1017.9 - 0.0 - - - - - - -
19/10:00pm 14.5 CALM 0 0 1017.9 - 0.0 - - - - - - -
19/09:30pm 14.9 CALM 0 0 1017.9 - 0.0 - - - - - - -
19/09:00pm 15.5 CALM 0 0 1017.6 - 0.0 - - - - - - -
19/08:30pm 15.9 NNE 2 3 1017.5 - 0.0 - - - - - - -
19/08:00pm 16.2 N 1 3 1017.3 - 0.0 - - - - - - -
19/07:30pm 17.7 N 3 6 1016.8 - 0.0 - - - - - - -
19/07:00pm 18.1 NNE 5 6 1016.4 - 0.0 - - - - - - -
19/06:30pm 19.7 NNE 8 9 1015.9 - 0.0 - - - - - - -
19/06:00pm 19.5 NNE 7 9 1015.4 - 0.0 - - - - - - -
19/05:30pm 19.6 N 9 10 1015.1 - 0.0 - - - - - - -
19/05:00pm 20.3 N 9 11 1014.9 - 0.0 - - - - - - -
19/04:30pm 20.8 NNE 10 12 1014.7 - 0.0 - - - - - - -
19/04:00pm 20.9 NNE 12 14 1014.4 - 0.0 - - - - - - -
19/03:30pm 21.1 NNE 11 13 1014.4 - 0.0 - - - - - - -
19/03:00pm 21.3 NE 11 13 1014.5 - 0.0 - - - - - - -
19/02:30pm 21.7 NE 12 14 1014.7 - 0.0 - - - - - - -
19/02:00pm 22.3 ENE 11 14 1015.1 - 0.0 - - - - - - -
19/01:30pm 22.4 E 8 12 1015.6 - 0.0 - - - - - - -
19/01:00pm 21.6 E 10 13 1016.1 - 0.0 - - - - - - -
19/12:30pm 23.0 E 8 14 1016.7 - 0.0 - - - - - - -
19/12:00pm 22.8 ESE 5 10 1017.3 - 0.0 - - - - - - -
19/11:30am 22.8 SSE 5 8 1017.8 - 0.0 - - - - - - -
19/11:00am 22.3 S 5 9 1018.4 - 0.0 - - - - - - -
19/10:30am 21.7 SSW 6 10 1019.2 - 0.0 - - - - - - -
19/10:00am 20.8 S 5 8 1019.6 - 0.0 - - - - - - -
19/09:30am 19.5 S 5 9 1019.8 - 0.0 - - - - - - -
19/09:00am 18.0 S 6 9 1019.7 - 0.0 - - - - - - -
19/08:30am 17.1 SSW 6 9 1019.5 - 0.0 - - - - - - -
19/08:00am 15.2 SSW 4 6 1019.4 - 0.0 - - - - - - -
19/07:30am 13.1 SSW 4 7 1019.0 - 0.0 - - - - - - -
19/07:00am 11.5 S 6 8 1018.7 - 0.0 - - - - - - -
19/06:30am 10.2 SSW 6 8 1018.3 - 0.0 - - - - - - -
19/06:00am 10.3 SSW 5 6 1018.1 - 0.0 - - - - - - -
19/05:30am 10.9 SW 5 7 1017.9 - 0.0 - - - - - - -
19/05:00am 10.9 SW 5 7 1017.7 - 0.0 - - - - - - -
19/04:30am 10.7 SW 5 6 1017.4 - 0.0 - - - - - - -
19/04:00am 11.3 SSW 5 6 1017.3 - 0.0 - - - - - - -
19/03:30am 11.9 SW 4 6 1017.1 - 0.0 - - - - - - -
19/03:00am 12.2 SW 5 7 1017.0 - 0.0 - - - - - - -
19/02:30am 12.3 S 5 7 1016.8 - 0.0 - - - - - - -
19/02:00am 12.6 SSW 3 4 1016.9 - 0.0 - - - - - - -
19/01:30am 13.1 SSW 3 5 1017.0 - 0.0 - - - - - - -
19/01:00am 13.4 SSW 4 5 1017.2 - 0.0 - - - - - - -
19/12:30am 13.3 S 4 5 1017.4 - 0.0 - - - - - - -
19/12:00am 13.9 S 4 5 1017.4 - 0.0 - - - - - - -
 
Date/Time
EST
Temp

°C
Wind Pressure Rain
since 9am
mm
Weather Cloud Vis
km
Sea
Height
m
Swell
Dir
 
Speed
knots
Gust
knots
hPa Trend Height
m
Period
s
Dir
18/11:30pm 14.4 SSW 3 4 1017.5 - 0.0 - - - - - - -
18/11:00pm 14.7 WSW 3 4 1017.7 - 0.0 - - - - - - -
18/10:30pm 14.1 SW 4 5 1017.5 - 0.0 - - - - - - -
18/10:00pm 14.4 SW 4 5 1017.5 - 0.0 - - - - - - -
18/09:30pm 15.3 WSW 3 4 1017.3 - 0.0 - - - - - - -
18/09:00pm 15.8 W 3 4 1017.1 - 0.0 - - - - - - -
18/08:30pm 15.8 W 4 5 1016.9 - 0.0 - - - - - - -
18/08:00pm 17.8 NNW 3 5 1016.5 - 0.0 - - - - - - -
18/07:30pm 18.7 N 5 8 1016.2 - 0.0 - - - - - - -
18/07:00pm 19.0 N 7 9 1015.8 - 0.0 - - - - - - -
18/06:30pm 18.9 N 7 9 1015.4 - 0.0 - - - - - - -
18/06:00pm 19.4 N 8 9 1015.2 - 0.0 - - - - - - -
18/05:30pm 19.8 NNE 7 8 1014.9 - 0.0 - - - - - - -
18/05:00pm 20.7 NNE 8 9 1014.7 - 0.0 - - - - - - -
18/04:30pm 21.2 NE 9 10 1014.4 - 0.0 - - - - - - -
18/04:00pm 21.5 NE 9 10 1014.4 - 0.0 - - - - - - -
18/03:30pm 21.8 NE 9 11 1014.4 - 0.0 - - - - - - -
18/03:00pm 22.2 ENE 6 9 1014.5 - 0.0 - - - - - - -
18/02:30pm 24.0 SW 7 11 1014.5 - 0.0 - - - - - - -
18/02:00pm 24.0 SSW 6 10 1014.8 - 0.0 - - - - - - -
18/01:30pm 23.9 SW 6 11 1015.2 - 0.0 - - - - - - -
18/01:00pm 23.4 S 7 11 1015.6 - 0.0 - - - - - - -
18/12:30pm 22.9 S 7 12 1016.3 - 0.0 - - - - - - -
18/12:00pm 22.1 SSW 7 11 1016.7 - 0.0 - - - - - - -
18/11:30am 21.6 SSW 9 16 1017.2 - 0.0 - - - - - - -
18/11:00am 21.0 SSW 11 17 1017.5 - 0.0 - - - - - - -
18/10:30am 21.0 SSW 8 14 1017.9 - 0.0 - - - - - - -
18/10:00am 19.4 SSW 9 15 1018.3 - 0.0 - - - - - - -
18/09:30am 18.9 SSW 7 13 1018.4 - 0.0 - - - - - - -
18/09:00am 17.2 SSW 8 12 1018.5 - 0.2 - - - - - - -
18/08:30am 15.8 SW 7 11 1018.3 - 0.2 - - - - - - -
18/08:00am 14.5 SW 5 9 1018.2 - 0.2 - - - - - - -
18/07:30am 12.6 SW 5 8 1017.9 - 0.2 - - - - - - -
18/07:00am 10.5 SW 4 6 1017.7 - 0.2 - - - - - - -
18/06:30am 9.8 WSW 3 4 1017.4 - 0.2 - - - - - - -
18/06:00am 10.1 SW 4 5 1017.0 - 0.2 - - - - - - -
18/05:30am 10.0 SW 4 5 1016.7 - 0.2 - - - - - - -
18/05:00am 10.0 SW 3 4 1016.4 - 0.2 - - - - - - -
18/04:30am 10.7 WSW 3 4 1016.2 - 0.2 - - - - - - -
18/04:00am 10.8 SW 4 5 1016.2 - 0.2 - - - - - - -
18/03:30am 10.9 WSW 4 6 1016.3 - 0.2 - - - - - - -
18/03:00am 11.7 SSW 5 7 1016.0 - 0.2 - - - - - - -
18/02:30am 11.6 SSW 3 4 1016.2 - 0.2 - - - - - - -
18/02:00am 11.9 SSW 4 6 1016.3 - 0.2 - - - - - - -
18/01:30am 12.1 CALM 0 1 1016.6 - 0.2 - - - - - - -
18/01:00am 12.3 SW 3 5 1016.6 - 0.2 - - - - - - -

Other Formats:

Comma delimited format used in spreadsheet applications
http://www.bom.gov.au/fwo/IDQ60701/IDQ60701.95296.axf

JavaScript Object Notation format (JSON) in row-major order
http://www.bom.gov.au/fwo/IDQ60701/IDQ60701.95296.json